Time;durP1;ratioP1;P1;durP2;ratioP2;P2;SDS_P1;SDS_P2;PMS_P1;PMS_P2;Temp;Humidity;BMP_temperature;BMP_pressure;BME280_temperature;BME280_humidity;BME280_pressure;Samples;Min_cycle;Max_cycle;Signal;HPM_P1;HPM_P2
2023/11/22 14:34:24;;;;;;;;;;;-1.00;99.90;;;;;;5123441;27;19920;-94
2023/11/22 14:36:50;;;;;;;;;;;-1.00;99.90;;;;;;5127296;27;19991;-94
2023/11/22 14:39:18;;;;;;;;;;;-0.90;99.90;;;;;;5134797;27;19912;-93
2023/11/22 14:41:54;;;;;;;;;;;-0.80;99.90;;;;;;5128960;28;19915;-95
2023/11/22 14:47:35;;;;;;;;;;;;;;;;;;;;;
2023/11/22 14:50:14;;;;;;;;;;;;;;;;;;;;;
2023/11/22 14:52:44;;;;;;;;;;;-0.40;99.90;;;;;;5130911;28;19912;-94
2023/11/22 14:55:12;;;;;;;;;;;-0.40;99.90;;;;;;5131238;28;20267;-92
2023/11/22 14:57:37;;;;;;;;;;;-0.30;99.90;;;;;;5131427;28;20416;-94
2023/11/22 15:00:09;;;;;;;;;;;-0.20;99.90;;;;;;5131630;27;19911;-94
2023/11/22 15:02:36;;;;;;;;;;;-0.20;99.90;;;;;;5131748;28;19912;-94
2023/11/22 15:05:05;;;;;;;;;;;-0.10;99.90;;;;;;5131894;28;19914;-93
2023/11/22 15:07:31;;;;;;;;;;;0.00;99.90;;;;;;5143728;28;20003;-93
2023/11/22 15:09:57;;;;;;;;;;;0.10;99.90;;;;;;5132378;28;19930;-93
2023/11/22 15:12:23;;;;;;;;;;;0.10;99.90;;;;;;5135625;27;20353;-92
2023/11/22 15:14:48;;;;;;;;;;;0.10;99.90;;;;;;5111510;28;19974;-93
2023/11/22 15:17:14;;;;;;;;;;;0.10;99.90;;;;;;5124275;28;19946;-93
2023/11/22 15:19:41;;;;;;;;;;;0.20;99.90;;;;;;5130631;28;20326;-91
2023/11/22 15:22:07;;;;;;;;;;;0.20;99.90;;;;;;5249536;22;19933;-92
2023/11/22 15:24:35;;;;;;;;;;;0.20;99.90;;;;;;5014568;28;19945;-95
2023/11/22 15:27:03;;;;;;;;;;;0.20;99.90;;;;;;5008379;28;19909;-93
2023/11/22 15:29:36;;;;;;;;;;;0.20;99.90;;;;;;5004006;28;19961;-92
2023/11/22 15:32:02;;;;;;;;;;;0.20;99.90;;;;;;5024587;28;19925;-92
2023/11/22 15:34:28;;;;;;;;;;;0.20;99.90;;;;;;5013489;28;19909;-92
2023/11/22 15:36:54;;;;;;;;;;;0.20;99.90;;;;;;5009646;28;19936;-91
2023/11/22 15:39:22;;;;;;;;;;;0.20;99.90;;;;;;5002713;28;19960;-92
2023/11/22 15:41:48;;;;;;;;;;;0.30;99.90;;;;;;4997265;28;19916;-91
2023/11/22 15:44:13;;;;;;;;;;;0.30;99.90;;;;;;5014546;28;20012;-92
2023/11/22 15:46:42;;;;;;;;;;;0.30;99.90;;;;;;4999805;28;20370;-93
2023/11/22 15:49:10;;;;;;;;;;;0.30;99.90;;;;;;4994528;28;19949;-91
2023/11/22 15:51:36;;;;;;;;;;;0.30;99.90;;;;;;4995112;28;19914;-92
2023/11/22 15:54:02;;;;;;;;;;;0.30;99.90;;;;;;4981371;28;20364;-93
2023/11/22 15:56:27;;;;;;;;;;;0.30;99.90;;;;;;4982975;28;19916;-92
2023/11/22 15:58:59;;;;;;;;;;;0.40;99.90;;;;;;4990848;28;19922;-90
2023/11/22 16:01:25;;;;;;;;;;;0.40;99.90;;;;;;4992135;28;19917;-92
2023/11/22 16:03:51;;;;;;;;;;;0.40;99.90;;;;;;4998097;28;19921;-94
2023/11/22 16:06:18;;;;;;;;;;;0.40;99.90;;;;;;4997078;28;20279;-92
2023/11/22 16:08:44;;;;;;;;;;;0.40;99.90;;;;;;4997990;28;19910;-93
2023/11/22 16:11:09;;;;;;;;;;;0.40;99.90;;;;;;4983206;28;19910;-91
2023/11/22 16:13:35;;;;;;;;;;;0.40;99.90;;;;;;4977404;28;19943;-91
2023/11/22 16:16:01;;;;;;;;;;;0.40;99.90;;;;;;4981197;28;19941;-91
2023/11/22 16:18:27;;;;;;;;;;;0.40;99.90;;;;;;4978502;28;19918;-90
2023/11/22 16:20:56;;;;;;;;;;;0.40;99.90;;;;;;4992993;28;19917;-91
2023/11/22 16:23:22;;;;;;;;;;;0.40;99.90;;;;;;5013127;28;19930;-89
2023/11/22 16:25:47;;;;;;;;;;;0.40;99.90;;;;;;4999474;28;20008;-91
2023/11/22 16:28:13;;;;;;;;;;;0.30;99.90;;;;;;4999516;28;19914;-92
2023/11/22 16:30:38;;;;;;;;;;;0.40;99.90;;;;;;4999279;28;19914;-89
2023/11/22 16:33:04;;;;;;;;;;;0.30;99.90;;;;;;5016937;28;19960;-91
2023/11/22 16:35:31;;;;;;;;;;;0.30;99.90;;;;;;4999594;28;20359;-90
2023/11/22 16:37:57;;;;;;;;;;;0.20;99.90;;;;;;5014709;28;19913;-91
2023/11/22 16:40:23;;;;;;;;;;;0.20;99.90;;;;;;5011447;28;19921;-92
2023/11/22 16:42:48;;;;;;;;;;;0.10;99.90;;;;;;5004277;28;19976;-92
2023/11/22 16:45:14;;;;;;;;;;;0.10;99.90;;;;;;5000226;28;20346;-94
2023/11/22 16:48:01;;;;;;;;;;;0.10;99.90;;;;;;5026623;28;19991;-92
2023/11/22 16:50:29;;;;;;;;;;;0.00;99.90;;;;;;5005779;28;19917;-90
2023/11/22 16:53:08;;;;;;;;;;;0.00;99.90;;;;;;5010533;28;19916;-90
2023/11/22 16:55:34;;;;;;;;;;;0.00;99.90;;;;;;5014717;28;20051;-90
2023/11/22 16:58:00;;;;;;;;;;;-0.10;99.90;;;;;;5008991;28;20377;-91
2023/11/22 17:00:26;;;;;;;;;;;-0.10;99.90;;;;;;5016527;28;19916;-90
2023/11/22 17:02:52;;;;;;;;;;;-0.10;99.90;;;;;;4997922;28;19918;-91
2023/11/22 17:08:34;;;;;;;;;;;-0.20;99.90;;;;;;5003020;28;20011;-91
2023/11/22 17:11:00;;;;;;;;;;;-0.30;99.90;;;;;;4998848;28;19948;-93
2023/11/22 17:13:48;;;;;;;;;;;-0.30;99.90;;;;;;5014260;28;19910;-92
2023/11/22 17:16:31;;;;;;;;;;;-0.40;99.90;;;;;;4998913;28;19910;-91
2023/11/22 17:19:14;;;;;;;;;;;-0.40;99.90;;;;;;5015409;28;19917;-92
2023/11/22 17:21:45;;;;;;;;;;;-0.40;99.90;;;;;;5014586;28;19917;-91
2023/11/22 17:24:20;;;;;;;;;;;-0.40;99.90;;;;;;4986156;28;19972;-91
2023/11/22 17:26:46;;;;;;;;;;;-0.50;99.90;;;;;;5000147;28;19914;-91
2023/11/22 17:29:26;;;;;;;;;;;-0.50;99.90;;;;;;4996901;28;19913;-92
2023/11/22 17:31:55;;;;;;;;;;;-0.50;99.90;;;;;;4978761;28;19994;-91
2023/11/22 17:37:18;;;;;;;;;;;-0.60;99.90;;;;;;5005123;28;20266;-91
2023/11/22 17:39:56;;;;;;;;;;;-0.70;99.90;;;;;;4998444;28;19914;-92
2023/11/22 17:42:23;;;;;;;;;;;-0.70;99.90;;;;;;4984588;28;19988;-92
